createdAt,value
2023-05-10T00:02:07.035Z,65.89
2023-05-10T00:04:36.866Z,66.34
2023-05-10T00:07:04.675Z,66.03
2023-05-10T00:09:32.997Z,66.33
2023-05-10T00:12:01.373Z,66.05
2023-05-10T00:14:29.246Z,66.01
2023-05-10T00:16:57.128Z,66.47
2023-05-10T00:19:25.947Z,65.99
2023-05-10T00:21:55.345Z,66.40
2023-05-10T00:24:23.144Z,66.11
2023-05-10T00:26:51.680Z,66.28
2023-05-10T00:29:19.492Z,66.41
2023-05-10T00:31:47.326Z,66.54
2023-05-10T00:34:15.623Z,66.63
2023-05-10T00:36:43.553Z,66.62
2023-05-10T00:39:13.686Z,66.68
2023-05-10T00:41:41.962Z,66.48
2023-05-10T00:44:10.036Z,66.38
2023-05-10T00:46:37.883Z,66.81
2023-05-10T00:49:06.629Z,66.48
2023-05-10T00:51:34.670Z,66.63
2023-05-10T00:54:02.662Z,66.57
2023-05-10T00:56:33.362Z,66.79
2023-05-10T00:59:02.131Z,66.59
2023-05-10T01:01:30.805Z,66.72
2023-05-10T01:03:59.690Z,66.76
2023-05-10T01:06:27.489Z,66.79
2023-05-10T01:08:55.566Z,66.84
2023-05-10T01:14:14.570Z,66.88
2023-05-10T01:16:44.963Z,66.72
2023-05-10T01:19:19.365Z,66.97
2023-05-10T01:21:55.507Z,66.82
2023-05-10T01:24:48.822Z,66.72
2023-05-10T01:27:26.533Z,66.86
2023-05-10T01:30:37.610Z,67.01
2023-05-10T01:33:13.527Z,66.91
2023-05-10T01:35:45.134Z,67.05
2023-05-10T01:38:20.086Z,66.63
2023-05-10T01:40:58.597Z,66.82
2023-05-10T01:43:33.639Z,67.05
2023-05-10T01:46:11.221Z,67.08
2023-05-10T01:48:48.827Z,66.82
2023-05-10T01:51:21.796Z,67.02
2023-05-10T01:53:52.299Z,67.11
2023-05-10T01:56:26.092Z,66.97
2023-05-10T01:58:55.493Z,67.04
2023-05-10T02:01:24.293Z,66.79
2023-05-10T02:03:54.139Z,66.85
2023-05-10T02:06:24.684Z,66.80
2023-05-10T02:08:54.241Z,67.15
2023-05-10T02:11:23.029Z,67.09
2023-05-10T02:13:53.014Z,67.02
2023-05-10T02:16:25.755Z,66.70
2023-05-10T02:18:56.398Z,66.64
2023-05-10T02:21:26.113Z,67.08
2023-05-10T02:23:56.896Z,66.65
2023-05-10T02:26:27.030Z,66.74
2023-05-10T02:28:56.393Z,66.94
2023-05-10T02:31:25.801Z,66.99
2023-05-10T02:33:56.495Z,66.63
2023-05-10T02:36:25.254Z,66.55
2023-05-10T02:38:55.475Z,66.72
2023-05-10T02:41:25.068Z,66.57
2023-05-10T02:43:52.935Z,66.81
2023-05-10T02:46:21.695Z,66.24
2023-05-10T02:48:49.553Z,66.21
2023-05-10T02:51:21.407Z,66.45
2023-05-10T02:53:51.945Z,66.30
2023-05-10T02:56:27.093Z,66.40
2023-05-10T02:58:55.432Z,66.52
2023-05-10T03:01:23.469Z,66.63
2023-05-10T03:03:51.337Z,66.58
2023-05-10T03:06:20.939Z,66.39
2023-05-10T03:08:48.655Z,66.71
2023-05-10T03:11:40.465Z,66.80
2023-05-10T03:14:22.682Z,66.56
2023-05-10T03:16:59.367Z,66.71
2023-05-10T03:19:32.336Z,66.56
2023-05-10T03:22:06.332Z,66.74
2023-05-10T03:24:37.619Z,66.85
2023-05-10T03:27:06.866Z,66.75
2023-05-10T03:29:35.857Z,66.78
2023-05-10T03:32:03.879Z,66.65
2023-05-10T03:34:33.525Z,66.68
2023-05-10T03:37:02.456Z,67.09
2023-05-10T03:39:30.254Z,66.73
2023-05-10T03:41:58.572Z,67.11
2023-05-10T03:44:26.372Z,66.81
2023-05-10T03:46:54.334Z,67.50
2023-05-10T03:49:22.680Z,67.06
2023-05-10T03:51:50.811Z,67.27
2023-05-10T03:54:19.926Z,67.48
2023-05-10T03:56:49.516Z,67.45
2023-05-10T03:59:17.070Z,67.65
2023-05-10T04:01:44.845Z,67.09
2023-05-10T04:04:13.359Z,67.15
2023-05-10T04:06:41.296Z,67.24
2023-05-10T04:09:09.347Z,67.07
2023-05-10T04:11:39.008Z,67.23
2023-05-10T04:14:06.598Z,67.53
2023-05-10T04:16:34.431Z,67.30
2023-05-10T04:19:02.729Z,67.16
2023-05-10T04:21:30.574Z,67.48
2023-05-10T04:23:58.342Z,67.26
2023-05-10T04:26:27.211Z,67.56
2023-05-10T04:28:56.381Z,67.46
2023-05-10T04:31:24.149Z,67.31
2023-05-10T04:33:52.550Z,67.71
2023-05-10T04:36:20.402Z,67.77
2023-05-10T04:38:48.199Z,67.55
2023-05-10T04:41:16.624Z,67.39
2023-05-10T04:43:44.389Z,67.61
2023-05-10T04:46:13.591Z,68.05
2023-05-10T04:48:41.953Z,67.74
2023-05-10T04:51:09.769Z,67.57
2023-05-10T04:53:37.556Z,67.82
2023-05-10T04:56:06.455Z,67.49
2023-05-10T04:58:34.385Z,67.64
2023-05-10T05:01:07.919Z,67.40
2023-05-10T05:03:37.118Z,67.23
2023-05-10T05:06:05.670Z,67.52
2023-05-10T05:08:33.992Z,67.04
2023-05-10T05:11:01.747Z,66.99
2023-05-10T05:13:29.606Z,67.08
2023-05-10T05:15:58.137Z,67.18
2023-05-10T05:18:26.170Z,67.12
2023-05-10T05:20:55.254Z,67.17
2023-05-10T05:23:26.168Z,66.89
2023-05-10T05:25:54.527Z,66.82
2023-05-10T05:28:23.412Z,66.87
2023-05-10T05:30:51.807Z,66.92
2023-05-10T05:33:19.580Z,66.72
2023-05-10T05:35:51.592Z,67.00
2023-05-10T05:38:21.237Z,67.36
2023-05-10T05:40:48.778Z,67.17
2023-05-10T05:43:16.515Z,67.27
2023-05-10T05:45:44.710Z,67.25
2023-05-10T05:48:12.474Z,66.92
2023-05-10T05:50:40.235Z,67.46
2023-05-10T05:53:08.534Z,67.00
2023-05-10T05:55:37.666Z,67.35
2023-05-10T05:58:05.525Z,67.05
2023-05-10T06:00:33.845Z,66.81
2023-05-10T06:03:01.767Z,66.98
2023-05-10T06:05:29.666Z,66.65
2023-05-10T06:07:58.160Z,66.67
2023-05-10T06:10:26.451Z,66.34
2023-05-10T06:12:55.833Z,66.61
2023-05-10T06:15:24.225Z,66.13
2023-05-10T06:17:52.202Z,65.85
2023-05-10T06:20:20.165Z,66.06
2023-05-10T06:22:48.452Z,66.47
2023-05-10T06:25:18.960Z,66.11
2023-05-10T06:27:52.865Z,66.08
2023-05-10T06:30:24.077Z,66.30
2023-05-10T06:32:52.553Z,66.07
2023-05-10T06:35:20.403Z,66.38
2023-05-10T06:37:48.529Z,66.63
2023-05-10T06:40:16.547Z,66.41
2023-05-10T06:42:45.936Z,66.71
2023-05-10T06:45:14.306Z,66.46
2023-05-10T06:47:44.463Z,66.88
2023-05-10T06:50:13.301Z,66.81
2023-05-10T06:52:41.274Z,66.35
2023-05-10T06:55:11.051Z,66.32
2023-05-10T06:57:38.918Z,66.44
2023-05-10T07:00:08.155Z,66.11
2023-05-10T07:02:36.367Z,66.51
2023-05-10T07:05:06.131Z,66.66
2023-05-10T07:07:34.034Z,66.47
2023-05-10T07:10:02.261Z,66.37
2023-05-10T07:12:30.060Z,66.75
2023-05-10T07:14:57.881Z,65.98
2023-05-10T07:17:26.708Z,66.12
2023-05-10T07:19:54.668Z,66.29
2023-05-10T07:22:23.821Z,66.42
2023-05-10T07:24:51.899Z,66.57
2023-05-10T07:27:19.916Z,65.86
2023-05-10T07:29:47.724Z,66.42
2023-05-10T07:32:15.703Z,66.09
2023-05-10T07:34:43.646Z,66.06
2023-05-10T07:37:11.486Z,66.02
2023-05-10T07:39:41.027Z,66.53
2023-05-10T07:42:09.285Z,65.81
2023-05-10T07:44:37.097Z,65.91
2023-05-10T07:47:04.963Z,66.03
2023-05-10T07:49:32.741Z,66.21
2023-05-10T07:52:00.523Z,66.32
2023-05-10T07:54:28.877Z,66.36
2023-05-10T07:56:58.170Z,66.35
2023-05-10T07:59:26.106Z,65.74
2023-05-10T08:01:54.406Z,66.26
2023-05-10T08:04:22.446Z,66.56
2023-05-10T08:06:50.340Z,66.12
2023-05-10T08:09:19.150Z,66.11
2023-05-10T08:11:46.928Z,66.24
2023-05-10T08:14:16.060Z,66.31
2023-05-10T08:16:44.085Z,66.10
2023-05-10T08:19:11.946Z,66.40
2023-05-10T08:21:41.425Z,66.74
2023-05-10T08:24:09.760Z,66.66
2023-05-10T08:26:37.531Z,66.37
2023-05-10T08:29:06.561Z,66.19
2023-05-10T08:31:36.234Z,66.19
2023-05-10T08:34:04.098Z,66.16
2023-05-10T08:36:33.126Z,66.46
2023-05-10T08:39:01.486Z,66.33
2023-05-10T08:41:29.863Z,66.15
2023-05-10T08:43:57.743Z,66.31
2023-05-10T08:46:26.091Z,66.43
2023-05-10T08:48:56.853Z,66.75
2023-05-10T08:51:27.904Z,66.46
2023-05-10T08:53:56.313Z,66.47
2023-05-10T08:56:25.038Z,66.25
2023-05-10T08:58:53.236Z,66.51
2023-05-10T09:01:22.356Z,65.93
2023-05-10T09:03:51.264Z,66.44
2023-05-10T09:06:21.293Z,66.48
2023-05-10T09:08:49.603Z,65.79
2023-05-10T09:11:18.185Z,65.93
2023-05-10T09:13:47.229Z,66.56
2023-05-10T09:18:48.512Z,66.16
2023-05-10T09:21:16.494Z,66.14
2023-05-10T09:23:48.703Z,66.11
2023-05-10T09:26:17.073Z,66.14
2023-05-10T09:28:55.489Z,66.18
2023-05-10T09:31:23.572Z,66.10
2023-05-10T09:33:52.602Z,66.50
2023-05-10T09:36:20.767Z,66.59
2023-05-10T09:38:51.829Z,66.24
2023-05-10T09:41:21.483Z,66.45
2023-05-10T09:43:49.113Z,66.44
2023-05-10T09:46:17.827Z,66.46
2023-05-10T09:48:47.510Z,66.91
2023-05-10T09:51:20.770Z,66.69
2023-05-10T09:53:51.897Z,66.25
2023-05-10T09:56:35.024Z,66.65
2023-05-10T09:59:06.634Z,66.17
2023-05-10T10:01:35.241Z,66.33
2023-05-10T10:04:06.011Z,65.82
2023-05-10T10:06:38.874Z,66.15
2023-05-10T10:09:09.180Z,66.19
2023-05-10T10:11:38.420Z,66.50
2023-05-10T10:14:06.704Z,66.31
2023-05-10T10:16:34.980Z,66.69
2023-05-10T10:19:03.270Z,66.62
2023-05-10T10:21:32.275Z,66.77
2023-05-10T10:24:00.047Z,66.58
2023-05-10T10:26:29.640Z,66.73
2023-05-10T10:29:02.637Z,67.09
2023-05-10T10:31:36.791Z,66.49
2023-05-10T10:34:09.490Z,66.46
2023-05-10T10:36:42.763Z,66.50
2023-05-10T10:39:13.217Z,66.71
2023-05-10T10:41:50.991Z,66.42
2023-05-10T10:44:27.377Z,66.84
2023-05-10T10:47:06.973Z,67.12
2023-05-10T10:49:35.363Z,67.11
2023-05-10T10:52:17.143Z,66.84
2023-05-10T10:54:52.550Z,66.78
2023-05-10T10:57:26.204Z,66.74
2023-05-10T10:59:54.631Z,66.79
2023-05-10T11:02:36.360Z,67.43
2023-05-10T11:05:46.179Z,67.53
2023-05-10T11:08:22.861Z,67.04
2023-05-10T11:11:08.216Z,66.71
2023-05-10T11:13:42.174Z,66.88
2023-05-10T11:16:16.302Z,67.57
2023-05-10T11:18:55.169Z,66.83
2023-05-10T11:21:23.344Z,66.98
2023-05-10T11:23:52.592Z,66.48
2023-05-10T11:26:24.505Z,66.17
2023-05-10T11:28:56.287Z,65.89
2023-05-10T11:31:28.216Z,65.88
2023-05-10T11:33:57.404Z,66.35
2023-05-10T11:36:29.550Z,66.28
2023-05-10T11:38:58.358Z,66.01
2023-05-10T11:41:27.024Z,65.90
2023-05-10T11:43:57.865Z,65.80
2023-05-10T11:46:27.643Z,65.56
2023-05-10T11:48:58.952Z,65.83
2023-05-10T11:51:27.825Z,65.94
2023-05-10T11:53:57.205Z,65.74
2023-05-10T11:56:27.654Z,65.85
2023-05-10T11:58:58.367Z,66.24
2023-05-10T12:01:27.416Z,66.45
2023-05-10T12:04:00.286Z,65.60
2023-05-10T12:06:30.411Z,65.57
2023-05-10T12:08:58.380Z,65.85
2023-05-10T12:11:28.785Z,65.63
2023-05-10T12:13:58.486Z,65.98
2023-05-10T12:16:27.770Z,65.90
2023-05-10T12:18:59.385Z,66.21
2023-05-10T12:21:27.934Z,65.90
2023-05-10T12:23:57.380Z,65.87
2023-05-10T12:26:28.271Z,64.95
2023-05-10T12:29:13.363Z,66.00
2023-05-10T12:31:52.865Z,65.98
2023-05-10T12:34:29.268Z,66.31
2023-05-10T12:36:57.611Z,65.29
2023-05-10T12:39:25.949Z,65.21
2023-05-10T12:41:54.379Z,65.38
2023-05-10T12:44:24.238Z,66.09
2023-05-10T12:46:52.192Z,65.71
2023-05-10T12:49:20.616Z,65.89
2023-05-10T12:51:49.070Z,65.19
2023-05-10T12:54:17.012Z,64.82
2023-05-10T12:56:45.432Z,63.72
2023-05-10T12:59:13.770Z,63.99
2023-05-10T13:01:43.312Z,64.04
2023-05-10T13:04:11.046Z,64.57
2023-05-10T13:06:39.574Z,64.49
2023-05-10T13:09:08.093Z,64.67
2023-05-10T13:11:36.169Z,64.53
2023-05-10T13:14:04.887Z,64.07
2023-05-10T13:16:33.120Z,63.67
2023-05-10T13:19:02.465Z,63.54
2023-05-10T13:21:31.029Z,63.32
2023-05-10T13:23:59.165Z,63.92
2023-05-10T13:26:27.265Z,64.32
2023-05-10T13:28:57.084Z,63.87
2023-05-10T13:31:25.038Z,63.55
2023-05-10T13:33:53.314Z,63.47
2023-05-10T13:36:24.356Z,63.50
2023-05-10T13:38:52.186Z,64.37
2023-05-10T13:41:20.389Z,62.30
2023-05-10T13:43:50.162Z,62.64
2023-05-10T13:46:18.131Z,62.80
2023-05-10T13:48:46.023Z,63.62
2023-05-10T13:51:14.906Z,63.80
2023-05-10T13:53:44.347Z,62.77
2023-05-10T13:56:12.320Z,62.06
2023-05-10T13:58:40.308Z,61.43
2023-05-10T14:01:08.702Z,61.41
2023-05-10T14:03:36.556Z,61.55
2023-05-10T14:06:04.624Z,61.70
2023-05-10T14:08:32.413Z,61.35
2023-05-10T14:11:01.549Z,61.77
2023-05-10T14:13:29.847Z,61.94
2023-05-10T14:15:57.672Z,62.16
2023-05-10T14:18:25.532Z,62.23
2023-05-10T14:20:53.387Z,62.39
2023-05-10T14:23:24.949Z,61.78
2023-05-10T14:25:52.886Z,61.38
2023-05-10T14:28:23.821Z,60.77
2023-05-10T14:30:51.847Z,61.59
2023-05-10T14:33:20.164Z,61.29
2023-05-10T14:35:48.334Z,60.77
2023-05-10T14:38:16.224Z,61.15
2023-05-10T14:40:44.340Z,60.95
2023-05-10T14:43:12.321Z,61.14
2023-05-10T14:45:41.588Z,61.79
2023-05-10T14:48:13.517Z,61.61
2023-05-10T14:50:41.783Z,61.69
2023-05-10T14:53:09.719Z,61.09
2023-05-10T14:55:38.105Z,61.31
2023-05-10T14:58:06.111Z,61.69
2023-05-10T15:00:34.199Z,61.17
2023-05-10T15:03:04.792Z,60.66
2023-05-10T15:05:33.097Z,60.47
2023-05-10T15:08:01.304Z,60.61
2023-05-10T15:10:29.441Z,60.62
2023-05-10T15:12:57.254Z,60.66
2023-05-10T15:15:25.699Z,60.29
2023-05-10T15:17:54.027Z,59.63
2023-05-10T15:20:23.514Z,58.07
2023-05-10T15:22:51.781Z,57.58
2023-05-10T15:25:20.299Z,57.94
2023-05-10T15:27:48.245Z,57.54
2023-05-10T15:30:16.613Z,57.88
2023-05-10T15:32:44.923Z,57.45
2023-05-10T15:35:12.800Z,57.88
2023-05-10T15:37:42.170Z,58.16
2023-05-10T15:40:11.209Z,58.54
2023-05-10T15:42:39.059Z,57.55
2023-05-10T15:45:08.133Z,56.35
2023-05-10T15:47:36.363Z,55.04
2023-05-10T15:50:04.639Z,55.83
2023-05-10T15:52:32.610Z,54.60
2023-05-10T15:55:02.205Z,54.68
2023-05-10T15:57:29.963Z,55.07
2023-05-10T15:59:58.209Z,53.82
2023-05-10T16:02:26.517Z,54.15
2023-05-10T16:04:54.425Z,54.54
2023-05-10T16:07:22.358Z,53.89
2023-05-10T16:09:50.853Z,53.82
2023-05-10T16:12:20.143Z,53.99
2023-05-10T16:14:48.193Z,54.83
2023-05-10T16:17:16.517Z,54.28
2023-05-10T16:19:44.603Z,54.38
2023-05-10T16:22:12.661Z,54.10
2023-05-10T16:24:40.812Z,53.99
2023-05-10T16:27:08.574Z,53.57
2023-05-10T16:29:38.018Z,53.45
2023-05-10T16:32:06.462Z,54.08
2023-05-10T16:34:34.291Z,54.04
2023-05-10T16:37:02.150Z,54.34
2023-05-10T16:39:30.134Z,55.04
2023-05-10T16:41:58.206Z,55.11
2023-05-10T16:44:26.253Z,55.55
2023-05-10T16:46:56.402Z,55.04
2023-05-10T16:49:26.135Z,55.21
2023-05-10T16:51:54.246Z,54.97
2023-05-10T16:54:22.786Z,55.21
2023-05-10T16:56:50.551Z,55.47
2023-05-10T16:59:18.587Z,55.53
2023-05-10T17:01:47.249Z,55.36
2023-05-10T17:04:17.772Z,55.88
2023-05-10T17:06:45.684Z,55.57
2023-05-10T17:09:14.192Z,55.76
2023-05-10T17:11:42.464Z,56.22
2023-05-10T17:14:10.270Z,56.95
2023-05-10T17:16:38.832Z,56.45
2023-05-10T17:19:06.954Z,56.56
2023-05-10T17:21:36.180Z,56.81
2023-05-10T17:24:04.487Z,56.92
2023-05-10T17:26:32.358Z,56.69
2023-05-10T17:29:00.151Z,57.22
2023-05-10T17:31:28.915Z,56.55
2023-05-10T17:33:56.736Z,56.41
2023-05-10T17:36:24.545Z,56.61
2023-05-10T17:38:54.538Z,56.58
2023-05-10T17:41:23.249Z,56.92
2023-05-10T17:43:51.112Z,57.01
2023-05-10T17:46:19.246Z,56.79
2023-05-10T17:48:47.264Z,56.76
2023-05-10T17:51:15.325Z,56.09
2023-05-10T17:53:43.555Z,56.79
2023-05-10T17:56:12.729Z,56.43
2023-05-10T17:58:40.538Z,56.35
2023-05-10T18:01:09.005Z,56.43
2023-05-10T18:03:36.815Z,56.43
2023-05-10T18:06:05.115Z,56.46
2023-05-10T18:08:33.659Z,56.09
2023-05-10T18:11:01.432Z,56.19
2023-05-10T18:13:30.583Z,56.34
2023-05-10T18:15:59.018Z,56.19
2023-05-10T18:18:26.987Z,56.53
2023-05-10T18:20:57.536Z,56.92
2023-05-10T18:23:26.924Z,57.22
2023-05-10T18:25:54.706Z,57.32
2023-05-10T18:28:22.471Z,57.54
2023-05-10T18:30:52.720Z,57.54
2023-05-10T18:33:20.504Z,57.78
2023-05-10T18:35:48.376Z,57.83
2023-05-10T18:38:16.781Z,57.90
2023-05-10T18:40:44.577Z,58.32
2023-05-10T18:43:12.458Z,58.51
2023-05-10T18:45:40.537Z,58.73
2023-05-10T18:48:09.692Z,59.54
2023-05-10T18:50:37.954Z,59.88
2023-05-10T18:53:06.448Z,59.91
2023-05-10T18:55:34.365Z,60.03
2023-05-10T18:58:02.125Z,59.90
2023-05-10T19:00:30.356Z,60.03
2023-05-10T19:02:58.210Z,59.66
2023-05-10T19:05:30.665Z,59.65
2023-05-10T19:07:58.545Z,59.95
2023-05-10T19:10:26.314Z,60.10
2023-05-10T19:12:54.706Z,60.48
2023-05-10T19:15:22.629Z,60.71
2023-05-10T19:17:51.645Z,60.64
2023-05-10T19:20:20.701Z,60.45
2023-05-10T19:23:08.150Z,60.67
2023-05-10T19:25:39.651Z,60.51
2023-05-10T19:28:07.945Z,60.72
2023-05-10T19:30:36.230Z,60.79
2023-05-10T19:33:04.692Z,60.81
2023-05-10T19:35:32.507Z,61.13
2023-05-10T19:38:01.751Z,61.10
2023-05-10T19:40:30.087Z,61.03
2023-05-10T19:42:58.219Z,60.96
2023-05-10T19:45:26.766Z,61.13
2023-05-10T19:47:54.996Z,60.93
2023-05-10T19:50:22.822Z,61.42
2023-05-10T19:52:50.815Z,61.27
2023-05-10T19:55:29.670Z,61.20
2023-05-10T19:57:57.624Z,61.42
2023-05-10T20:00:27.221Z,61.28
2023-05-10T20:02:55.315Z,61.19
2023-05-10T20:05:23.250Z,61.28
2023-05-10T20:07:51.542Z,61.31
2023-05-10T20:10:19.872Z,61.35
2023-05-10T20:12:51.345Z,61.31
2023-05-10T20:15:20.703Z,61.49
2023-05-10T20:17:50.957Z,61.41
2023-05-10T20:20:19.990Z,61.48
2023-05-10T20:22:48.571Z,61.52
2023-05-10T20:25:18.928Z,61.70
2023-05-10T20:27:46.792Z,61.66
2023-05-10T20:30:18.080Z,61.66
2023-05-10T20:32:46.102Z,61.80
2023-05-10T20:35:13.884Z,61.75
2023-05-10T20:37:41.873Z,61.95
2023-05-10T20:40:10.989Z,61.88
2023-05-10T20:42:38.806Z,62.24
2023-05-10T20:45:07.920Z,62.14
2023-05-10T20:47:37.299Z,62.25
2023-05-10T20:50:05.349Z,62.00
2023-05-10T20:52:33.333Z,62.06
2023-05-10T20:55:01.160Z,62.36
2023-05-10T20:57:28.922Z,62.34
2023-05-10T20:59:57.792Z,62.79
2023-05-10T21:02:25.942Z,62.85
2023-05-10T21:04:57.795Z,62.82
2023-05-10T21:07:26.374Z,62.71
2023-05-10T21:09:54.183Z,62.71
2023-05-10T21:12:21.954Z,63.13
2023-05-10T21:14:49.973Z,62.79
2023-05-10T21:17:20.008Z,62.93
2023-05-10T21:19:48.036Z,63.15
2023-05-10T21:22:17.980Z,63.02
2023-05-10T21:24:45.833Z,62.97
2023-05-10T21:27:13.704Z,63.28
2023-05-10T21:29:41.527Z,63.17
2023-05-10T21:32:09.719Z,62.96
2023-05-10T21:34:37.680Z,62.87
2023-05-10T21:37:06.041Z,62.93
2023-05-10T21:39:35.209Z,62.83
2023-05-10T21:42:03.861Z,63.09
2023-05-10T21:44:32.583Z,63.02
2023-05-10T21:47:00.344Z,63.28
2023-05-10T21:49:28.307Z,63.39
2023-05-10T21:51:56.417Z,63.11
2023-05-10T21:54:24.170Z,63.28
2023-05-10T21:56:53.517Z,63.07
2023-05-10T21:59:22.574Z,62.99
2023-05-10T22:01:50.497Z,62.90
2023-05-10T22:04:18.345Z,63.38
2023-05-10T22:06:46.675Z,63.08
2023-05-10T22:09:14.437Z,62.99
2023-05-10T22:11:42.190Z,62.98
2023-05-10T22:14:11.914Z,62.75
2023-05-10T22:16:39.712Z,62.95
2023-05-10T22:19:07.561Z,62.81
2023-05-10T22:21:35.897Z,62.58
2023-05-10T22:24:03.664Z,62.45
2023-05-10T22:26:31.489Z,62.35
2023-05-10T22:28:59.598Z,62.33
2023-05-10T22:31:29.103Z,62.25
2023-05-10T22:33:56.895Z,62.08
2023-05-10T22:36:25.225Z,62.15
2023-05-10T22:38:52.966Z,62.25
2023-05-10T22:41:20.737Z,62.00
2023-05-10T22:43:49.040Z,62.21
2023-05-10T22:46:16.866Z,62.22
2023-05-10T22:48:46.020Z,61.79
2023-05-10T22:51:14.207Z,61.66
2023-05-10T22:53:42.613Z,61.73
2023-05-10T22:56:10.964Z,61.78
2023-05-10T22:58:39.234Z,61.74
2023-05-10T23:01:07.149Z,61.79
2023-05-10T23:03:35.025Z,61.87
2023-05-10T23:06:05.059Z,62.20
2023-05-10T23:08:32.853Z,62.41
2023-05-10T23:11:00.716Z,62.55
2023-05-10T23:13:28.945Z,62.67
2023-05-10T23:15:57.341Z,62.91
2023-05-10T23:18:25.158Z,62.92
2023-05-10T23:20:54.348Z,62.81
2023-05-10T23:23:23.768Z,62.72
2023-05-10T23:25:51.748Z,62.44
2023-05-10T23:28:20.407Z,62.42
2023-05-10T23:30:48.182Z,62.26
2023-05-10T23:33:15.962Z,62.55
2023-05-10T23:35:44.462Z,62.64
2023-05-10T23:38:12.277Z,62.94
2023-05-10T23:40:41.495Z,62.91
2023-05-10T23:43:09.909Z,62.86
2023-05-10T23:45:37.711Z,63.10
2023-05-10T23:48:06.156Z,63.00
2023-05-10T23:50:34.453Z,63.06
2023-05-10T23:53:02.235Z,63.08
2023-05-10T23:55:29.997Z,62.96
2023-05-10T23:57:59.411Z,63.19
